Time;durP1;ratioP1;P1;durP2;ratioP2;P2;SDS_P1;SDS_P2;PMS_P1;PMS_P2;Temp;Humidity;BMP_temperature;BMP_pressure;BME280_temperature;BME280_humidity;BME280_pressure;Samples;Min_cycle;Max_cycle;Signal;HPM_P1;HPM_P2
2023/12/16 00:00:09;;;;;;;8.38;4.38;;;;;;;-147.90;100.00;59510.75;4989981;28;20046;-86
2023/12/16 00:02:36;;;;;;;27.58;10.80;;;;;;;-147.90;100.00;59510.75;4990594;28;20042;-84
2023/12/16 00:05:03;;;;;;;22.60;10.35;;;;;;;-147.90;100.00;59510.75;4990021;28;20128;-85
2023/12/16 00:07:32;;;;;;;31.35;11.63;;;;;;;-147.90;100.00;59510.75;4989588;28;20085;-82
2023/12/16 00:09:59;;;;;;;15.35;6.20;;;;;;;-147.90;100.00;59510.75;4989225;28;20056;-84
2023/12/16 00:12:25;;;;;;;23.95;9.85;;;;;;;-147.90;100.00;59510.75;4989409;28;20058;-86
2023/12/16 00:14:53;;;;;;;20.38;10.55;;;;;;;-147.90;100.00;59510.75;4989533;28;20515;-84
2023/12/16 00:17:19;;;;;;;24.63;16.05;;;;;;;-147.90;100.00;59510.75;4989633;28;20058;-83
2023/12/16 00:19:46;;;;;;;3.67;2.10;;;;;;;-147.90;100.00;59510.75;4993575;28;20129;-86
2023/12/16 00:22:13;;;;;;;8.35;5.00;;;;;;;-147.90;100.00;59510.75;4989383;28;20487;-84
2023/12/16 00:24:42;;;;;;;2.20;1.40;;;;;;;-147.90;100.00;59510.75;4990698;28;20144;-86
2023/12/16 00:27:09;;;;;;;4.03;2.38;;;;;;;-147.90;100.00;59510.75;4997842;28;20060;-84
2023/12/16 00:29:36;;;;;;;4.47;3.20;;;;;;;-147.90;100.00;59510.75;4989836;28;20046;-81
2023/12/16 00:32:03;;;;;;;3.67;2.17;;;;;;;-147.90;100.00;59510.75;4989200;28;20132;-82
2023/12/16 00:34:33;;;;;;;4.05;2.05;;;;;;;-147.90;100.00;59510.75;4990680;28;20137;-86
2023/12/16 00:37:00;;;;;;;3.63;2.53;;;;;;;-147.90;100.00;59510.75;4989436;28;20050;-83
2023/12/16 00:39:27;;;;;;;3.97;2.80;;;;;;;-147.90;100.00;59510.75;4993033;28;20148;-83
2023/12/16 00:41:56;;;;;;;1.83;1.10;;;;;;;-147.90;100.00;59510.75;4989487;28;20050;-83
2023/12/16 00:44:22;;;;;;;2.03;1.45;;;;;;;-147.90;100.00;59510.75;4991527;28;20060;-84
2023/12/16 00:46:49;;;;;;;3.92;2.85;;;;;;;-147.90;100.00;59510.75;4990777;28;20062;-82
2023/12/16 00:49:16;;;;;;;4.93;3.40;;;;;;;-147.90;100.00;59510.75;4989096;28;20085;-87
2023/12/16 00:51:43;;;;;;;2.78;1.75;;;;;;;-147.90;100.00;59510.75;4993350;28;20053;-82
2023/12/16 00:54:10;;;;;;;3.10;2.05;;;;;;;-147.90;100.00;59510.75;4988722;28;20636;-82
2023/12/16 00:56:37;;;;;;;3.88;2.63;;;;;;;-147.90;100.00;59510.75;4989199;28;20494;-85
2023/12/16 00:59:06;;;;;;;5.15;3.40;;;;;;;-147.90;100.00;59510.75;4988969;28;20816;-83
2023/12/16 01:01:33;;;;;;;3.72;2.53;;;;;;;-147.90;100.00;59510.75;4993070;28;20456;-86
2023/12/16 01:04:00;;;;;;;3.20;1.70;;;;;;;-147.90;100.00;59510.75;4989108;28;20595;-86
2023/12/16 01:06:27;;;;;;;4.32;2.50;;;;;;;-147.90;100.00;59510.75;4988276;28;20058;-88
2023/12/16 01:08:54;;;;;;;3.10;2.00;;;;;;;-147.90;100.00;59510.75;4991925;28;20141;-88
2023/12/16 01:11:21;;;;;;;2.72;1.80;;;;;;;-147.90;100.00;59510.75;4988780;28;20046;-85
2023/12/16 01:13:48;;;;;;;5.28;2.97;;;;;;;-147.90;100.00;59510.75;4988438;28;20512;-87
2023/12/16 01:16:17;;;;;;;14.63;7.82;;;;;;;-147.90;100.00;59510.75;4991808;28;20148;-85
2023/12/16 01:18:44;;;;;;;12.68;6.32;;;;;;;-147.90;100.00;59510.75;4990495;28;20050;-87
2023/12/16 01:21:11;;;;;;;7.03;3.92;;;;;;;-147.90;100.00;59510.75;4988093;28;20149;-87
2023/12/16 01:23:38;;;;;;;5.32;3.28;;;;;;;-147.90;100.00;59510.75;4988325;28;20050;-85
2023/12/16 01:26:05;;;;;;;7.90;4.55;;;;;;;-147.90;100.00;59510.75;4992550;28;20148;-83
2023/12/16 01:28:33;;;;;;;3.55;2.20;;;;;;;-147.90;100.00;59510.75;4992245;28;20125;-86
2023/12/16 01:31:00;;;;;;;4.55;2.63;;;;;;;-147.90;100.00;59510.75;4988168;28;20062;-87
2023/12/16 01:33:29;;;;;;;3.05;2.20;;;;;;;-147.90;100.00;59510.75;4988114;28;20093;-83
2023/12/16 01:35:57;;;;;;;2.70;1.67;;;;;;;-147.90;100.00;59510.75;4988136;28;20042;-87
2023/12/16 01:38:24;;;;;;;1.77;1.02;;;;;;;-147.90;100.00;59510.75;4998358;28;20399;-87
2023/12/16 01:40:53;;;;;;;2.20;1.25;;;;;;;-147.90;100.00;59510.75;5003279;28;20133;-90
2023/12/16 01:43:20;;;;;;;2.20;1.20;;;;;;;-147.90;100.00;59510.75;4990352;28;20526;-87
2023/12/16 01:45:49;;;;;;;1.60;1.10;;;;;;;-147.90;100.00;59510.75;4988278;28;20570;-88
2023/12/16 01:48:16;;;;;;;1.67;0.98;;;;;;;-147.90;100.00;59510.75;5002592;28;20049;-82
2023/12/16 01:50:45;;;;;;;2.20;1.58;;;;;;;-147.90;100.00;59510.75;4987880;28;20125;-85
2023/12/16 01:53:12;;;;;;;1.75;1.08;;;;;;;-147.90;100.00;59510.75;4988016;28;20133;-85
2023/12/16 01:55:39;;;;;;;1.40;0.75;;;;;;;-147.90;100.00;59510.75;4991865;28;20165;-87
2023/12/16 01:58:06;;;;;;;1.90;1.40;;;;;;;-147.90;100.00;59510.75;4988405;28;20460;-83
2023/12/16 02:00:34;;;;;;;1.70;1.10;;;;;;;-147.90;100.00;59510.75;4992557;28;20133;-86
2023/12/16 02:03:01;;;;;;;2.05;1.08;;;;;;;-147.90;100.00;59510.75;4987810;28;20056;-83
2023/12/16 02:05:29;;;;;;;2.35;1.27;;;;;;;-147.90;100.00;59510.75;4987849;28;20401;-85
2023/12/16 02:07:57;;;;;;;1.50;1.00;;;;;;;-147.90;100.00;59510.75;4988435;28;20050;-83
2023/12/16 02:10:24;;;;;;;1.60;0.95;;;;;;;-147.90;100.00;59510.75;4988049;28;20042;-85
2023/12/16 02:12:51;;;;;;;1.90;1.30;;;;;;;-147.90;100.00;59510.75;4987705;28;20047;-81
2023/12/16 02:15:18;;;;;;;2.13;1.08;;;;;;;-147.90;100.00;59510.75;4987937;28;20156;-83
2023/12/16 02:17:45;;;;;;;1.88;1.10;;;;;;;-147.90;100.00;59510.75;4991817;28;20057;-84
2023/12/16 02:20:14;;;;;;;2.33;1.15;;;;;;;-147.90;100.00;59510.75;4988592;28;20054;-81
2023/12/16 02:22:41;;;;;;;1.10;0.80;;;;;;;-147.90;100.00;59510.75;4988105;28;20054;-81
2023/12/16 02:25:11;;;;;;;1.83;1.10;;;;;;;-147.90;100.00;59510.75;4988209;28;20062;-85
2023/12/16 02:27:38;;;;;;;1.55;0.82;;;;;;;-147.90;100.00;59510.75;4988578;28;20057;-83
2023/12/16 02:30:07;;;;;;;1.50;1.10;;;;;;;-147.90;100.00;59510.75;4988225;28;20066;-82
2023/12/16 02:32:34;;;;;;;1.27;0.90;;;;;;;-147.90;100.00;59510.75;4989931;28;20504;-82
2023/12/16 02:35:01;;;;;;;1.60;1.00;;;;;;;-147.90;100.00;59510.75;4991228;28;20125;-84
2023/12/16 02:37:28;;;;;;;1.73;1.15;;;;;;;-147.90;100.00;59510.75;4991664;28;20175;-84
2023/12/16 02:39:54;;;;;;;1.35;0.85;;;;;;;-147.90;100.00;59510.75;4993116;28;20054;-82
2023/12/16 02:42:23;;;;;;;1.73;0.80;;;;;;;-147.90;100.00;59510.75;4991129;28;20557;-84
2023/12/16 02:44:50;;;;;;;1.23;0.88;;;;;;;-147.90;100.00;59510.75;4992420;28;20054;-85
2023/12/16 02:47:17;;;;;;;1.75;1.15;;;;;;;-147.90;100.00;59510.75;4991103;28;20057;-87
2023/12/16 02:49:44;;;;;;;2.10;1.00;;;;;;;-147.90;100.00;59510.75;4992891;28;20127;-85
2023/12/16 02:52:11;;;;;;;1.30;0.90;;;;;;;-147.90;100.00;59510.75;4991327;28;20097;-86
2023/12/16 02:54:39;;;;;;;1.33;0.77;;;;;;;-147.90;100.00;59510.75;4990854;28;20714;-86
2023/12/16 02:57:06;;;;;;;1.73;0.90;;;;;;;-147.90;100.00;59510.75;5006514;28;20125;-83
2023/12/16 02:59:34;;;;;;;1.65;1.10;;;;;;;-147.90;100.00;59510.75;4991158;28;20059;-80
2023/12/16 03:02:01;;;;;;;2.63;1.50;;;;;;;-147.90;100.00;59510.75;4991553;28;20050;-79
2023/12/16 03:04:28;;;;;;;1.27;0.80;;;;;;;-147.90;100.00;59510.75;4990569;28;20819;-84
2023/12/16 03:06:55;;;;;;;2.25;0.82;;;;;;;-147.90;100.00;59510.75;4990967;28;20177;-87
2023/12/16 03:09:22;;;;;;;1.88;1.35;;;;;;;-147.90;100.00;59510.75;4990926;28;20128;-85
2023/12/16 03:11:49;;;;;;;1.85;0.98;;;;;;;-147.90;100.00;59510.75;4992582;28;21134;-90
2023/12/16 03:14:17;;;;;;;1.40;1.00;;;;;;;-147.90;100.00;59510.75;4990434;28;20057;-84
2023/12/16 03:16:45;;;;;;;2.22;1.23;;;;;;;-147.90;100.00;59510.75;4991639;28;20081;-81
2023/12/16 03:19:12;;;;;;;2.10;1.45;;;;;;;-147.90;100.00;59510.75;4992017;28;20133;-86
2023/12/16 03:21:39;;;;;;;5.05;1.55;;;;;;;-147.90;100.00;59510.75;4990432;28;20061;-81
2023/12/16 03:24:06;;;;;;;2.55;1.75;;;;;;;-147.90;100.00;59510.75;4991104;28;20046;-82
2023/12/16 03:26:33;;;;;;;1.70;1.20;;;;;;;-147.90;100.00;59510.75;4990295;28;20109;-82
2023/12/16 03:29:00;;;;;;;1.35;1.00;;;;;;;-147.90;100.00;59510.75;4990165;28;20133;-81
2023/12/16 03:31:27;;;;;;;1.50;1.08;;;;;;;-147.90;100.00;59510.75;4990687;28;20056;-83
2023/12/16 03:33:56;;;;;;;2.20;1.50;;;;;;;-147.90;100.00;59510.75;4991735;28;20469;-83
2023/12/16 03:36:23;;;;;;;1.83;1.10;;;;;;;-147.90;100.00;59510.75;4992625;28;20460;-82
2023/12/16 03:38:50;;;;;;;1.58;1.00;;;;;;;-147.90;100.00;59510.75;4990650;28;20062;-83
2023/12/16 03:41:16;;;;;;;1.55;0.93;;;;;;;-147.90;100.00;59510.75;4991844;28;20133;-82
2023/12/16 03:43:43;;;;;;;1.77;1.30;;;;;;;-147.90;100.00;59510.75;4989913;28;20051;-82
2023/12/16 03:46:10;;;;;;;1.70;1.20;;;;;;;-147.90;100.00;59510.75;4991648;28;20050;-82
2023/12/16 03:48:37;;;;;;;1.85;1.00;;;;;;;-147.90;100.00;59510.75;4990020;28;20133;-83
2023/12/16 03:51:06;;;;;;;1.77;1.10;;;;;;;-147.90;100.00;59510.75;5007987;28;20050;-84
2023/12/16 03:53:33;;;;;;;2.05;1.35;;;;;;;-147.90;100.00;59510.75;4990408;28;20449;-84
2023/12/16 03:56:01;;;;;;;2.17;1.60;;;;;;;-147.90;100.00;59510.75;4994216;28;20062;-84
2023/12/16 03:58:28;;;;;;;1.50;1.08;;;;;;;-147.90;100.00;59510.75;4990221;28;20542;-80
2023/12/16 04:00:55;;;;;;;1.30;0.98;;;;;;;-147.90;100.00;59510.75;4990149;28;20149;-82
2023/12/16 04:03:21;;;;;;;1.08;0.75;;;;;;;-147.90;100.00;59510.75;4991500;28;20527;-84
2023/12/16 04:05:49;;;;;;;1.10;0.80;;;;;;;-147.90;100.00;59510.75;4989540;28;20068;-81
2023/12/16 04:08:17;;;;;;;2.25;1.65;;;;;;;-147.90;100.00;59510.75;4989710;28;20497;-82
2023/12/16 04:10:44;;;;;;;1.42;1.00;;;;;;;-147.90;100.00;59510.75;4991890;28;20046;-84
2023/12/16 04:13:11;;;;;;;2.00;1.00;;;;;;;-147.90;100.00;59510.75;4989663;28;20407;-82
2023/12/16 04:15:38;;;;;;;1.23;0.98;;;;;;;-147.90;100.00;59510.75;4991044;28;20054;-85
2023/12/16 04:18:05;;;;;;;1.80;1.08;;;;;;;-147.90;100.00;59510.75;4989569;28;20056;-84
2023/12/16 04:20:32;;;;;;;1.52;0.90;;;;;;;-147.90;100.00;59510.75;5007482;28;20144;-84
2023/12/16 04:22:59;;;;;;;2.30;1.60;;;;;;;-147.90;100.00;59510.75;5003667;28;20840;-81
2023/12/16 04:25:27;;;;;;;1.50;0.98;;;;;;;-147.90;100.00;59510.75;4989136;28;20050;-80
2023/12/16 04:27:54;;;;;;;1.80;1.10;;;;;;;-147.90;100.00;59510.75;4989551;28;20161;-81
2023/12/16 04:30:22;;;;;;;1.70;1.00;;;;;;;-147.90;100.00;59510.75;4992373;28;20077;-80
2023/12/16 04:32:49;;;;;;;1.40;0.90;;;;;;;-147.90;100.00;59510.75;4989430;28;20054;-78
2023/12/16 04:35:16;;;;;;;1.88;1.00;;;;;;;-147.90;100.00;59510.75;4991338;28;20042;-79
2023/12/16 04:37:43;;;;;;;1.20;0.80;;;;;;;-147.90;100.00;59510.75;4988835;28;20057;-79
2023/12/16 04:40:10;;;;;;;1.77;1.00;;;;;;;-147.90;100.00;59510.75;4989358;28;20056;-79
2023/12/16 04:42:42;;;;;;;2.88;2.10;;;;;;;-147.90;100.00;59510.75;4991099;28;20041;-79
2023/12/16 04:45:10;;;;;;;2.22;1.38;;;;;;;-147.90;100.00;59510.75;4996760;28;20042;-81
2023/12/16 04:47:37;;;;;;;2.38;1.40;;;;;;;-147.90;100.00;59510.75;4988935;28;20064;-80
2023/12/16 04:50:05;;;;;;;1.88;1.40;;;;;;;-147.90;100.00;59510.75;4989365;28;20082;-87
2023/12/16 04:52:32;;;;;;;2.35;1.23;;;;;;;-147.90;100.00;59510.75;4993457;28;20133;-78
2023/12/16 04:54:59;;;;;;;2.30;1.42;;;;;;;-147.90;100.00;59510.75;4991371;28;20046;-78
2023/12/16 04:57:26;;;;;;;2.00;1.30;;;;;;;-147.90;100.00;59510.75;4999187;28;20056;-78
2023/12/16 04:59:54;;;;;;;1.73;0.80;;;;;;;-147.90;100.00;59510.75;4989235;28;20051;-78
2023/12/16 05:02:21;;;;;;;1.63;1.10;;;;;;;-147.90;100.00;59510.75;4988906;28;20416;-80
2023/12/16 05:04:48;;;;;;;2.03;0.95;;;;;;;-147.90;100.00;59510.75;4989056;28;20054;-81
2023/12/16 05:07:15;;;;;;;3.63;1.50;;;;;;;-147.90;100.00;59510.75;4998979;28;20085;-79
2023/12/16 05:09:42;;;;;;;3.13;1.40;;;;;;;-147.90;100.00;59510.75;4989951;28;20061;-80
2023/12/16 05:12:09;;;;;;;3.00;1.50;;;;;;;-147.90;100.00;59510.75;4989485;28;20125;-81
2023/12/16 05:14:36;;;;;;;2.80;1.65;;;;;;;-147.90;100.00;59510.75;4991767;28;20555;-82
2023/12/16 05:17:04;;;;;;;1.83;1.27;;;;;;;-147.90;100.00;59510.75;4988551;28;20047;-81
2023/12/16 05:19:31;;;;;;;4.82;2.60;;;;;;;-147.90;100.00;59510.75;4988532;28;20047;-79
2023/12/16 05:21:58;;;;;;;11.55;5.88;;;;;;;-147.90;100.00;59510.75;4988955;28;20054;-81
2023/12/16 05:24:25;;;;;;;6.05;2.75;;;;;;;-147.90;100.00;59510.75;4989483;28;20056;-79
2023/12/16 05:26:52;;;;;;;6.60;3.53;;;;;;;-147.90;100.00;59510.75;4992364;28;20050;-83
2023/12/16 05:29:19;;;;;;;4.03;2.33;;;;;;;-147.90;100.00;59510.75;4988371;28;20165;-80
2023/12/16 05:31:46;;;;;;;4.78;3.03;;;;;;;-147.90;100.00;59510.75;4989067;28;20054;-81
2023/12/16 05:34:14;;;;;;;8.15;3.90;;;;;;;-147.90;100.00;59510.75;4992020;28;20417;-78
2023/12/16 05:36:41;;;;;;;2.33;1.10;;;;;;;-147.90;100.00;59510.75;4998555;28;20049;-82
2023/12/16 05:39:09;;;;;;;3.20;1.95;;;;;;;-147.90;100.00;59510.75;4988946;28;20050;-82
2023/12/16 05:41:36;;;;;;;3.38;2.10;;;;;;;-147.90;100.00;59510.75;4992001;28;20050;-80
2023/12/16 05:44:03;;;;;;;2.15;1.10;;;;;;;-147.90;100.00;59510.75;4988166;28;20406;-79
2023/12/16 05:46:30;;;;;;;1.75;1.15;;;;;;;-147.90;100.00;59510.75;4988537;28;20056;-78
2023/12/16 05:48:57;;;;;;;2.22;1.30;;;;;;;-147.90;100.00;59510.75;4989005;28;21012;-78
2023/12/16 05:51:25;;;;;;;2.10;1.20;;;;;;;-147.90;100.00;59510.75;4997176;28;20049;-77
2023/12/16 05:53:52;;;;;;;1.70;1.15;;;;;;;-147.90;100.00;59510.75;4988483;28;20046;-81
2023/12/16 05:56:19;;;;;;;1.98;1.02;;;;;;;-147.90;100.00;59510.75;4988448;28;20054;-78
2023/12/16 05:58:46;;;;;;;2.13;1.35;;;;;;;-147.90;100.00;59510.75;4987966;28;20054;-78
2023/12/16 06:01:19;;;;;;;2.05;1.23;;;;;;;-147.90;100.00;59510.75;4988359;28;20070;-77
2023/12/16 06:03:46;;;;;;;1.60;1.20;;;;;;;-147.90;100.00;59510.75;4990646;28;20050;-81
2023/12/16 06:06:13;;;;;;;2.15;1.40;;;;;;;-147.90;100.00;59510.75;4988516;28;20046;-79
2023/12/16 06:08:42;;;;;;;1.58;1.08;;;;;;;-147.90;100.00;59510.75;4999570;28;20049;-82
2023/12/16 06:11:12;;;;;;;2.63;1.50;;;;;;;-147.90;100.00;59510.75;4993418;28;20046;-81
2023/12/16 06:13:39;;;;;;;2.38;1.40;;;;;;;-147.90;100.00;59510.75;4991655;28;20058;-80
2023/12/16 06:16:07;;;;;;;2.92;1.50;;;;;;;-147.90;100.00;59510.75;4991897;28;20129;-79
2023/12/16 06:18:34;;;;;;;3.80;1.70;;;;;;;-147.90;100.00;59510.75;4993178;28;20133;-81
2023/12/16 06:21:01;;;;;;;4.10;2.40;;;;;;;-147.90;100.00;59510.75;4993489;28;20141;-79
2023/12/16 06:23:30;;;;;;;3.90;1.40;;;;;;;-147.90;100.00;59510.75;4991694;28;20104;-81
2023/12/16 06:25:59;;;;;;;2.95;1.40;;;;;;;-147.90;100.00;59510.75;4992009;28;20100;-80
2023/12/16 06:28:26;;;;;;;3.22;1.30;;;;;;;-147.90;100.00;59510.75;4992940;28;20137;-82
2023/12/16 06:30:53;;;;;;;2.50;1.58;;;;;;;-147.90;100.00;59510.75;4991813;28;20050;-82
2023/12/16 06:33:22;;;;;;;3.35;1.35;;;;;;;-147.90;100.00;59510.75;4999679;28;20077;-81
2023/12/16 06:35:49;;;;;;;2.10;1.33;;;;;;;-147.90;100.00;59510.75;4994261;28;20081;-82
2023/12/16 06:38:16;;;;;;;3.60;2.17;;;;;;;-147.90;100.00;59510.75;4991454;28;20049;-83
2023/12/16 06:40:43;;;;;;;7.82;4.10;;;;;;;-147.90;100.00;59510.75;4995750;28;20054;-83
2023/12/16 06:43:11;;;;;;;3.45;1.88;;;;;;;-147.90;100.00;59510.75;4992312;28;20138;-82
2023/12/16 06:45:38;;;;;;;2.83;1.65;;;;;;;-147.90;100.00;59510.75;4996215;28;20046;-83
2023/12/16 06:48:06;;;;;;;3.90;2.08;;;;;;;-147.90;100.00;59510.75;4993602;28;20530;-80
2023/12/16 06:50:33;;;;;;;4.20;1.80;;;;;;;-147.90;100.00;59510.75;5003199;28;20054;-82
2023/12/16 06:53:00;;;;;;;25.45;9.07;;;;;;;-147.90;100.00;59510.75;4994467;28;20169;-83
2023/12/16 06:55:27;;;;;;;69.90;23.38;;;;;;;-147.90;100.00;59510.75;5003675;28;20045;-81
2023/12/16 06:57:53;;;;;;;12.63;5.32;;;;;;;-147.90;100.00;59510.75;4992059;28;20046;-81
2023/12/16 07:00:22;;;;;;;5.18;2.80;;;;;;;-147.90;100.00;59510.75;4993121;28;20401;-80
2023/12/16 07:02:49;;;;;;;18.77;10.40;;;;;;;-147.90;100.00;59510.75;4999389;28;20431;-82
2023/12/16 07:05:16;;;;;;;3.70;2.13;;;;;;;-147.90;100.00;59510.75;4991237;28;20050;-80
2023/12/16 07:07:44;;;;;;;5.70;3.35;;;;;;;-147.90;100.00;59510.75;4991017;28;20050;-80
2023/12/16 07:10:11;;;;;;;5.25;3.33;;;;;;;-147.90;100.00;59510.75;5002204;28;20054;-81
2023/12/16 07:12:38;;;;;;;3.30;2.00;;;;;;;-147.90;100.00;59510.75;4991160;28;20165;-82
2023/12/16 07:15:06;;;;;;;3.85;2.63;;;;;;;-147.90;100.00;59510.75;4990849;28;20137;-84
2023/12/16 07:17:35;;;;;;;2.80;1.50;;;;;;;-147.90;100.00;59510.75;4990781;28;20507;-84
2023/12/16 07:20:02;;;;;;;4.60;2.33;;;;;;;-147.90;100.00;59510.75;4989365;28;20054;-82
2023/12/16 07:22:29;;;;;;;2.72;1.67;;;;;;;-147.90;100.00;59510.75;4991132;28;20458;-84
2023/12/16 07:24:56;;;;;;;2.13;1.27;;;;;;;-147.90;100.00;59510.75;4990567;28;20093;-83
2023/12/16 07:27:23;;;;;;;3.15;1.70;;;;;;;-147.90;100.00;59510.75;4990517;28;20054;-82
2023/12/16 07:29:52;;;;;;;2.90;1.70;;;;;;;-147.90;100.00;59510.75;4990496;28;20060;-81
2023/12/16 07:32:19;;;;;;;2.30;1.10;;;;;;;-147.90;100.00;59510.75;4990089;28;20046;-81
2023/12/16 07:34:49;;;;;;;2.05;1.10;;;;;;;-147.90;100.00;59510.75;4990337;28;20052;-82
2023/12/16 07:37:16;;;;;;;2.53;1.50;;;;;;;-147.90;100.00;59510.75;4990514;28;20080;-81
2023/12/16 07:39:43;;;;;;;3.65;1.92;;;;;;;-147.90;100.00;59510.75;4991952;28;20042;-81
2023/12/16 07:42:11;;;;;;;2.70;1.92;;;;;;;-147.90;100.00;59510.75;4991857;28;20520;-82
2023/12/16 07:44:38;;;;;;;1.67;0.98;;;;;;;-147.90;100.00;59510.75;4992599;28;20050;-80
2023/12/16 07:47:05;;;;;;;2.75;1.55;;;;;;;-147.90;100.00;59510.75;4990166;28;20052;-82
2023/12/16 07:49:32;;;;;;;2.30;1.30;;;;;;;-147.90;100.00;59510.75;4991457;28;20042;-81
2023/12/16 07:52:01;;;;;;;4.03;2.40;;;;;;;-147.90;100.00;59510.75;4990685;28;20161;-81
2023/12/16 07:54:28;;;;;;;6.03;3.78;;;;;;;-147.90;100.00;59510.75;4994749;28;20050;-84
2023/12/16 07:56:55;;;;;;;3.17;2.08;;;;;;;-147.90;100.00;59510.75;5002188;28;20053;-80
2023/12/16 07:59:22;;;;;;;4.03;2.70;;;;;;;-147.90;100.00;59510.75;4995934;28;20121;-81
2023/12/16 08:01:52;;;;;;;3.67;2.35;;;;;;;-147.90;100.00;59510.75;4991006;28;20129;-81
2023/12/16 08:04:19;;;;;;;34.33;13.68;;;;;;;-147.90;100.00;59510.75;4999832;28;20076;-81
2023/12/16 08:06:46;;;;;;;12.88;5.68;;;;;;;-147.90;100.00;59510.75;4992023;28;20054;-82
2023/12/16 08:09:14;;;;;;;14.30;6.45;;;;;;;-147.90;100.00;59510.75;4993389;28;20507;-82
2023/12/16 08:11:41;;;;;;;3.35;1.95;;;;;;;-147.90;100.00;59510.75;4990828;28;20512;-82
2023/12/16 08:14:08;;;;;;;18.92;15.93;;;;;;;-147.90;100.00;59510.75;5004933;28;20081;-82
2023/12/16 08:16:38;;;;;;;15.98;13.27;;;;;;;-147.90;100.00;59510.75;4999547;28;20132;-82
2023/12/16 08:19:05;;;;;;;14.88;12.30;;;;;;;-147.90;100.00;59510.75;4993965;28;20081;-84
2023/12/16 08:21:32;;;;;;;8.02;7.18;;;;;;;-147.90;100.00;59510.75;4999152;28;20053;-79
2023/12/16 08:23:59;;;;;;;4.13;2.55;;;;;;;-147.90;100.00;59510.75;4991407;28;20059;-82
2023/12/16 08:26:27;;;;;;;5.32;4.82;;;;;;;-147.90;100.00;59510.75;4989695;28;20060;-82
2023/12/16 08:28:54;;;;;;;3.80;3.30;;;;;;;-147.90;100.00;59510.75;4989630;28;20057;-81
2023/12/16 08:31:20;;;;;;;1.95;1.30;;;;;;;-147.90;100.00;59510.75;4991029;28;20050;-81
2023/12/16 08:33:47;;;;;;;2.25;1.25;;;;;;;-147.90;100.00;59510.75;4989861;28;20397;-79
2023/12/16 08:36:14;;;;;;;2.38;1.73;;;;;;;-147.90;100.00;59510.75;4988957;28;20054;-80
2023/12/16 08:38:41;;;;;;;4.47;2.40;;;;;;;-147.90;100.00;59510.75;4991404;28;20054;-80
2023/12/16 08:41:09;;;;;;;5.28;2.90;;;;;;;-147.90;100.00;59510.75;4990121;28;20141;-79
2023/12/16 08:43:37;;;;;;;2.58;1.92;;;;;;;-147.90;100.00;59510.75;4989583;28;20046;-81
2023/12/16 08:46:05;;;;;;;2.95;1.55;;;;;;;-147.90;100.00;59510.75;4998167;28;20053;-79
2023/12/16 08:48:32;;;;;;;3.78;1.55;;;;;;;-147.90;100.00;59510.75;4989044;28;20050;-80
2023/12/16 08:50:59;;;;;;;12.73;4.13;;;;;;;-147.90;100.00;59510.75;4992068;28;20050;-80
2023/12/16 08:53:26;;;;;;;7.25;3.45;;;;;;;-147.90;100.00;59510.75;4989395;28;20060;-78
2023/12/16 08:55:53;;;;;;;3.65;1.80;;;;;;;-147.90;100.00;59510.75;4989017;28;20050;-81
2023/12/16 08:58:20;;;;;;;2.85;1.48;;;;;;;-147.90;100.00;59510.75;4988263;28;20133;-82
2023/12/16 09:00:49;;;;;;;2.60;1.50;;;;;;;-147.90;100.00;59510.75;4988940;28;20535;-79
2023/12/16 09:03:16;;;;;;;2.00;1.20;;;;;;;-147.90;100.00;59510.75;4989614;28;20050;-83
2023/12/16 09:05:43;;;;;;;2.45;1.30;;;;;;;-147.90;100.00;59510.75;4997563;28;20049;-84
2023/12/16 09:08:10;;;;;;;3.58;1.95;;;;;;;-147.90;100.00;59510.75;4991581;28;20188;-81
2023/12/16 09:10:38;;;;;;;2.03;1.30;;;;;;;-147.90;100.00;59510.75;4989050;28;20050;-82
2023/12/16 09:13:05;;;;;;;2.08;1.55;;;;;;;-147.90;100.00;59510.75;5003899;28;20117;-80
2023/12/16 09:15:32;;;;;;;5.95;4.00;;;;;;;-147.90;100.00;59510.75;4990759;28;20046;-82
2023/12/16 09:18:00;;;;;;;2.60;1.73;;;;;;;-147.90;100.00;59510.75;4988829;28;20765;-82
2023/12/16 09:20:27;;;;;;;2.17;1.55;;;;;;;-147.90;100.00;59510.75;4989932;28;20166;-81
2023/12/16 09:22:54;;;;;;;5.50;3.25;;;;;;;-147.90;100.00;59510.75;4988640;28;20060;-82
2023/12/16 09:25:21;;;;;;;7.50;2.45;;;;;;;-147.90;100.00;59510.75;4991250;28;20129;-82
2023/12/16 09:27:48;;;;;;;3.13;2.38;;;;;;;-147.90;100.00;59510.75;5001218;28;20053;-81
2023/12/16 09:30:16;;;;;;;5.45;4.22;;;;;;;-147.90;100.00;59510.75;4992769;28;20050;-81
2023/12/16 09:32:45;;;;;;;2.08;1.50;;;;;;;-147.90;100.00;59510.75;4993957;28;20050;-82
2023/12/16 09:35:13;;;;;;;2.17;1.10;;;;;;;-147.90;100.00;59510.75;4995388;28;20057;-81
2023/12/16 09:37:40;;;;;;;1.80;0.82;;;;;;;-147.90;100.00;59510.75;4990802;28;20053;-81
2023/12/16 09:40:08;;;;;;;1.85;1.17;;;;;;;-147.90;100.00;59510.75;4988725;28;20053;-79
2023/12/16 09:42:37;;;;;;;1.45;0.80;;;;;;;-147.90;100.00;59510.75;4993625;28;20050;-80
2023/12/16 09:45:05;;;;;;;1.75;1.05;;;;;;;-147.90;100.00;59510.75;4991684;28;20047;-82
2023/12/16 09:47:32;;;;;;;2.60;1.90;;;;;;;-147.90;100.00;59510.75;5004377;28;20050;-79
2023/12/16 09:50:00;;;;;;;5.80;4.45;;;;;;;-147.90;100.00;59510.75;4992756;28;20057;-80
2023/12/16 09:52:28;;;;;;;2.38;1.40;;;;;;;-147.90;100.00;59510.75;4988318;28;20524;-79
2023/12/16 09:54:55;;;;;;;5.60;4.03;;;;;;;-147.90;100.00;59510.75;4991950;28;20062;-81
2023/12/16 09:57:24;;;;;;;12.77;6.80;;;;;;;-147.90;100.00;59510.75;4995828;28;20563;-81
2023/12/16 09:59:53;;;;;;;23.80;9.95;;;;;;;-147.90;100.00;59510.75;4988804;28;20061;-81
2023/12/16 10:02:27;;;;;;;6.97;3.72;;;;;;;-147.90;100.00;59510.75;4989510;28;20393;-81
2023/12/16 10:04:56;;;;;;;3.03;1.55;;;;;;;-147.90;100.00;59510.75;4992753;28;20579;-81
2023/12/16 10:07:23;;;;;;;2.85;1.20;;;;;;;-147.90;100.00;59510.75;4990438;28;20050;-81
2023/12/16 10:09:52;;;;;;;3.20;2.05;;;;;;;-147.90;100.00;59510.75;4990793;28;20414;-82
2023/12/16 10:12:19;;;;;;;2.38;1.35;;;;;;;-147.90;100.00;59510.75;4991470;28;20050;-79
2023/12/16 10:14:47;;;;;;;2.75;1.85;;;;;;;-147.90;100.00;59510.75;5002497;28;20060;-82
2023/12/16 10:17:17;;;;;;;2.45;1.55;;;;;;;-147.90;100.00;59510.75;5004557;28;20050;-81
2023/12/16 10:19:44;;;;;;;2.05;1.60;;;;;;;-147.90;100.00;59510.75;4995246;28;20053;-80
2023/12/16 10:22:13;;;;;;;2.97;1.92;;;;;;;-147.90;100.00;59510.75;4990473;28;20058;-82
2023/12/16 10:24:41;;;;;;;2.85;1.90;;;;;;;-147.90;100.00;59510.75;4988297;28;20492;-81
2023/12/16 10:27:10;;;;;;;2.17;1.27;;;;;;;-147.90;100.00;59510.75;4991475;28;20069;-78
2023/12/16 10:29:40;;;;;;;2.63;1.70;;;;;;;-147.90;100.00;59510.75;4993965;28;20504;-78
2023/12/16 10:32:10;;;;;;;5.63;3.47;;;;;;;-147.90;100.00;59510.75;4988006;28;20133;-81
2023/12/16 10:34:36;;;;;;;2.55;1.67;;;;;;;-147.90;100.00;59510.75;4990676;28;20042;-78
2023/12/16 10:37:04;;;;;;;;;;;;;;;-147.90;100.00;59510.75;4994184;28;20063;-79
2023/12/16 10:39:31;;;;;;;15.20;9.23;;;;;;;-147.90;100.00;59510.75;5001155;28;19931;-78
2023/12/16 10:41:58;;;;;;;25.98;13.45;;;;;;;-147.90;100.00;59510.75;4992895;28;20117;-80
2023/12/16 10:44:26;;;;;;;14.85;7.68;;;;;;;-147.90;100.00;59510.75;4993748;28;20508;-79
2023/12/16 10:46:54;;;;;;;79.03;36.35;;;;;;;-147.90;100.00;59510.75;4989857;28;20074;-79
2023/12/16 10:49:28;;;;;;;163.52;77.75;;;;;;;-147.90;100.00;59510.75;4990042;28;20053;-80
2023/12/16 10:52:05;;;;;;;59.47;30.27;;;;;;;-147.90;100.00;59510.75;4990475;28;20051;-80
2023/12/16 10:54:37;;;;;;;16.40;9.63;;;;;;;-147.90;100.00;59510.75;4993787;28;20050;-78
2023/12/16 10:57:19;;;;;;;99.65;52.47;;;;;;;-147.90;100.00;59510.75;4992411;28;20060;-77
2023/12/16 10:59:55;;;;;;;45.13;24.85;;;;;;;-147.90;100.00;59510.75;4993146;28;20443;-77
2023/12/16 11:02:24;;;;;;;71.15;35.80;;;;;;;-147.90;100.00;59510.75;4993646;28;20051;-77
2023/12/16 11:04:57;;;;;;;15.65;8.77;;;;;;;-147.90;100.00;59510.75;5003782;28;20133;-77
2023/12/16 11:07:29;;;;;;;102.10;50.38;;;;;;;-147.90;100.00;59510.75;5001520;28;20045;-77